Snyder, Colorado
Current Conditions -  °F | °C
As of 9:35 AM on Saturday 22 Nov 2014 (Local Time) from KFMM Reporting Station
Clear Clear  
Wind Chill: 37°   Ceiling: Unl
Heat Index: 42°   Visibility: 10mi
Dew Point: 21°   Wind: 7mph
Humidity: 44%   Direction: 270°W
Pressure: 29.74"   Gusts: NA
Location:  40.33°N, 103.6°W
Report Text: KFMM 221635Z AUTO 27006KT 10SM CLR 05/M06 A2974 RMK AO2 LTG DSNT SE T00541059
Loading
Personal Weather Stations






























Interactive Weather Map New forecast layout! Learn more

10-Day Weather Forecast

Advertisements
Track Severe Weather on mobile